Sanders, AZ

8:45 AM MST on March 01, 2015 (GMT -0700)
Window Rock | Change Station
CLOSE
Current Station
Airport
Location: Window Rock,
Elevation: 6742 ft
Nearby Weather Stations

Elev 6742 ft 35.66 °N, 109.06 °W | Updated 52 minutes ago

Overcast
Overcast
38 °F
Feels Like 36 °F
N
4
Wind Variable Wind from SSW

Today
High -- | Low -- °F
--% Chance of Precip.
Yesterday
High -- | Low -- °F
Precip. -- in
6:47 AM 6:12 PM
Waxing Gibbous, 85% visible
Pressure 29.97 in
Visibility 10.0 miles
Clouds Mostly Cloudy 1600 ft
Overcast 2100 ft
Windchill 36 °F
Dew Point 35 °F
Humidity 89%
Rainfall 0.01 in
Snow Depth Not available.
UV 0 out of 12
Pollen 1.00 out of 12
Air Quality Not available.
Flu Activity Not available.
METAR KRQE 011453Z AUTO 20003KT 10SM BKN016 OVC021 03/02 A3005 RMK AO2 SLP147 60001 T00330017 53014 TSNO

More Conditions Fewer Conditions

Pressure 29.97 in
Visibility 10.0 miles
Clouds Mostly Cloudy 1600 ft
Overcast 2100 ft
Windchill 36 °F
Dew Point 35 °F
Humidity 89%
Rainfall 0.01 in
Snow Depth Not available.
UV 0 out of 12
Pollen 1.00 out of 12
Air Quality Not available.
Flu Activity Not available.
METAR KRQE 011453Z AUTO 20003KT 10SM BKN016 OVC021 03/02 A3005 RMK AO2 SLP147 60001 T00330017 53014 TSNO

More Conditions Fewer Conditions

10-Day Weather Forecast

Almanac

Astronomy

Mar. 01, 2015 Rise Set
Actual Time
Civil Twilight
Nautical Twilight
Astronomical Twilight
Moon
Length of Visible Light
Length of Day
Tomorrow will be .
, % of the Moon is Illuminated

Today's Extremes

State Highs State Lows

Community

WunderPhotos

Upload Photos

1,801,435 photos uploaded!

WunderBlogs® & News

Nearby

Air Quality

  Air Quality AQ Index Pollutant
Not available.

Snow Depth

Station Depth Elevation

Earthquake Activity

City Distance Mag. Time & Date
Minimum magnitude displayed is 2.5.

Coastal Water Temperatures

Place Temperature

Nearby Weather Stations